createdAt,value
2022-10-23T00:02:26.631Z,37.47
2022-10-23T00:12:28.159Z,33.95
2022-10-23T00:22:29.637Z,37.87
2022-10-23T00:42:33.661Z,32.60
2022-10-23T00:52:41.156Z,45.77
2022-10-23T01:02:43.297Z,35.78
2022-10-23T01:12:54.282Z,29.10
2022-10-23T01:23:17.200Z,33.90
2022-10-23T01:33:25.979Z,34.33
2022-10-23T01:43:44.060Z,35.77
2022-10-23T01:53:48.014Z,30.55
2022-10-23T02:03:50.904Z,29.00
2022-10-23T02:14:28.209Z,28.57
2022-10-23T02:24:38.414Z,31.90
2022-10-23T02:34:40.009Z,26.80
2022-10-23T02:44:50.433Z,30.58
2022-10-23T02:55:01.047Z,27.07
2022-10-23T03:05:06.004Z,26.93
2022-10-23T03:15:08.339Z,28.33
2022-10-23T03:25:10.230Z,30.90
2022-10-23T03:35:11.737Z,37.75
2022-10-23T03:45:13.234Z,40.60
2022-10-23T03:55:14.730Z,55.07
2022-10-23T04:05:16.687Z,78.73
2022-10-23T04:15:18.178Z,72.90
2022-10-23T04:25:19.671Z,84.88
2022-10-23T04:35:21.163Z,83.13
2022-10-23T04:45:22.662Z,76.63
2022-10-23T04:55:24.647Z,66.90
2022-10-23T05:05:26.163Z,60.10
2022-10-23T05:15:27.706Z,61.28
2022-10-23T05:25:30.593Z,62.60
2022-10-23T05:35:32.282Z,42.33
2022-10-23T05:45:33.788Z,49.33
2022-10-23T05:55:35.286Z,68.13
2022-10-23T06:05:36.884Z,73.10
2022-10-23T06:15:38.439Z,48.10
2022-10-23T06:25:39.981Z,50.83
2022-10-23T06:35:41.484Z,41.83
2022-10-23T06:45:43.014Z,46.53
2022-10-23T06:55:44.534Z,45.53
2022-10-23T07:05:46.072Z,58.13
2022-10-23T07:15:47.565Z,44.47
2022-10-23T07:25:49.113Z,51.90
2022-10-23T07:35:50.707Z,50.83
2022-10-23T07:45:53.015Z,55.40
2022-10-23T07:55:55.875Z,60.27
2022-10-23T08:05:57.885Z,53.00
2022-10-23T08:15:59.427Z,54.20
2022-10-23T08:26:02.665Z,56.53
2022-10-23T08:36:04.576Z,49.03
2022-10-23T08:46:15.782Z,54.73
2022-10-23T08:56:24.306Z,67.63
2022-10-23T09:07:04.780Z,56.23
2022-10-23T09:27:19.610Z,72.50
2022-10-23T09:37:27.084Z,59.00
2022-10-23T09:47:28.615Z,54.33
2022-10-23T09:57:44.288Z,50.03
2022-10-23T10:07:55.401Z,46.30
2022-10-23T10:18:09.678Z,45.13
2022-10-23T10:28:17.447Z,51.37
2022-10-23T10:38:37.366Z,45.23
2022-10-23T10:49:19.626Z,46.30
2022-10-23T10:59:24.749Z,44.00
2022-10-23T11:09:30.347Z,50.17
2022-10-23T11:19:42.090Z,50.23
2022-10-23T11:29:58.962Z,49.73
2022-10-23T11:40:06.433Z,46.33
2022-10-23T11:50:07.888Z,50.30
2022-10-23T12:00:22.792Z,43.95
2022-10-23T12:10:30.797Z,43.60
2022-10-23T12:20:43.335Z,43.10
2022-10-23T12:30:59.109Z,47.30
2022-10-23T12:41:10.104Z,40.60
2022-10-23T12:51:22.215Z,44.17
2022-10-23T13:01:28.391Z,39.17
2022-10-23T13:11:31.286Z,40.83
2022-10-23T13:21:32.910Z,40.13
2022-10-23T13:31:34.409Z,43.13
2022-10-23T13:41:46.501Z,41.22
2022-10-23T13:51:53.603Z,38.47
2022-10-23T14:01:55.289Z,41.03
2022-10-23T14:11:56.826Z,38.33
2022-10-23T14:21:58.311Z,40.70
2022-10-23T14:31:59.825Z,36.85
2022-10-23T14:42:01.399Z,37.83
2022-10-23T14:52:03.031Z,34.63
2022-10-23T15:02:04.658Z,39.77
2022-10-23T15:12:06.732Z,37.80
2022-10-23T15:22:08.233Z,39.03
2022-10-23T15:32:10.094Z,37.47
2022-10-23T15:42:11.627Z,39.97
2022-10-23T15:52:13.141Z,44.47
2022-10-23T16:02:14.844Z,42.63
2022-10-23T16:12:16.445Z,43.25
2022-10-23T16:22:17.941Z,44.30
2022-10-23T16:32:19.464Z,39.80
2022-10-23T16:42:20.961Z,46.97
2022-10-23T16:52:22.808Z,43.53
2022-10-23T17:02:24.435Z,47.85
2022-10-23T17:12:26.068Z,45.23
2022-10-23T17:22:27.569Z,44.83
2022-10-23T17:32:29.096Z,47.10
2022-10-23T17:42:30.631Z,46.63
2022-10-23T17:52:32.262Z,48.75
2022-10-23T18:02:33.969Z,51.07
2022-10-23T18:12:35.697Z,50.93
2022-10-23T18:22:37.678Z,46.90
2022-10-23T18:32:39.214Z,48.03
2022-10-23T18:42:40.837Z,46.95
2022-10-23T18:52:42.598Z,48.00
2022-10-23T19:02:45.970Z,45.10
2022-10-23T19:12:49.219Z,44.00
2022-10-23T19:22:52.623Z,48.47
2022-10-23T19:32:54.345Z,46.30
2022-10-23T19:42:55.865Z,50.00
2022-10-23T19:52:57.369Z,45.07
2022-10-23T20:02:58.876Z,39.13
2022-10-23T20:13:18.248Z,41.73
2022-10-23T20:23:21.143Z,45.95
2022-10-23T20:33:22.655Z,41.53
2022-10-23T20:43:24.172Z,38.80
2022-10-23T20:53:25.659Z,35.10
2022-10-23T21:03:27.233Z,40.80
2022-10-23T21:13:29.573Z,41.25
2022-10-23T21:23:31.150Z,39.37
2022-10-23T21:33:33.197Z,38.60
2022-10-23T21:43:35.063Z,33.33
2022-10-23T21:53:36.595Z,38.67
2022-10-23T22:03:38.166Z,38.20
2022-10-23T22:13:41.130Z,39.10
2022-10-23T22:23:43.446Z,40.53
2022-10-23T22:33:45.028Z,39.73
2022-10-23T22:43:46.568Z,40.83
2022-10-23T22:53:48.100Z,45.50
2022-10-23T23:03:49.997Z,44.60
2022-10-23T23:13:51.549Z,40.90
2022-10-23T23:23:53.794Z,43.37
2022-10-23T23:33:55.503Z,42.43
2022-10-23T23:43:58.387Z,40.28
2022-10-23T23:53:59.891Z,43.20
